North Brookfield, Massachusetts
Current Conditions -  °F | °C
As of 4:54 AM on Thursday 27 Nov 2014 (Local Time) from KORH Reporting Station
Overcast Overcast  
Wind Chill: 17°   Ceiling: 6000
Heat Index: 29°   Visibility: 10mi
Dew Point: 27°   Wind: 16mph
Humidity: 92%   Direction: 310°NW
Pressure: 29.79"   Gusts: NA
Location:  42.27°N, 72.08°W
Report Text: KORH 270954Z AUTO 31014KT 10SM FEW009 BKN060 OVC100 M02/M03 A2979 RMK AO2 SNE0855 SLP100 P0000 T10171028
Loading
Personal Weather Stations






























Interactive Weather Map New forecast layout! Learn more

10-Day Weather Forecast

Advertisements
Track Severe Weather on mobile